Time;durP1;ratioP1;P1;durP2;ratioP2;P2;SDS_P1;SDS_P2;PMS_P1;PMS_P2;Temp;Humidity;BMP_temperature;BMP_pressure;BME280_temperature;BME280_humidity;BME280_pressure;Samples;Min_cycle;Max_cycle;Signal;HPM_P1;HPM_P2
2022/03/21 00:01:05;;;;;;;10.15;5.50;;;1.50;85.70;;;;;;5094099;28;20073;-61
2022/03/21 00:03:31;;;;;;;14.35;6.45;;;1.40;86.60;;;;;;5094784;28;20028;-61
2022/03/21 00:06:00;;;;;;;10.25;4.63;;;1.50;86.60;;;;;;5095031;28;20382;-61
2022/03/21 00:08:25;;;;;;;;;;;1.40;87.40;;;;;;5094977;28;20097;-61
2022/03/21 00:10:56;;;;;;;11.15;5.40;;;1.40;85.50;;;;;;5094891;28;19907;-61
2022/03/21 00:13:22;;;;;;;9.80;5.05;;;1.40;86.20;;;;;;5093942;28;20073;-62
2022/03/21 00:15:50;;;;;;;8.25;4.97;;;1.30;86.10;;;;;;5094792;28;20031;-64
2022/03/21 00:18:16;;;;;;;11.43;6.15;;;1.30;86.20;;;;;;5093847;28;20498;-62
2022/03/21 00:20:44;;;;;;;8.57;4.93;;;1.30;85.60;;;;;;5094952;28;20085;-62
2022/03/21 00:23:10;;;;;;;9.02;5.43;;;1.30;85.90;;;;;;5094782;28;20499;-61
2022/03/21 00:25:36;;;;;;;12.43;5.60;;;1.40;83.40;;;;;;5094938;28;20043;-62
2022/03/21 00:28:02;;;;;;;11.98;5.35;;;1.40;81.60;;;;;;5094866;28;20070;-62
2022/03/21 00:30:29;;;;;;;8.30;4.60;;;1.50;81.00;;;;;;5094559;28;20031;-61
2022/03/21 00:32:55;;;;;;;10.65;5.50;;;1.50;80.10;;;;;;5094493;28;20047;-61
2022/03/21 00:35:22;;;;;;;9.15;4.72;;;1.50;78.70;;;;;;5094184;28;20028;-61
2022/03/21 00:37:47;;;;;;;9.00;5.43;;;1.50;81.40;;;;;;5094118;28;20077;-61
2022/03/21 00:40:15;;;;;;;12.35;5.22;;;1.60;79.90;;;;;;5094115;28;20052;-61
2022/03/21 00:42:42;;;;;;;9.98;4.82;;;1.50;81.40;;;;;;5094062;28;20020;-61
2022/03/21 00:45:16;;;;;;;14.23;5.50;;;1.50;80.60;;;;;;5094306;28;20027;-61
2022/03/21 00:47:43;;;;;;;9.57;5.18;;;1.40;82.90;;;;;;5093201;28;20042;-61
2022/03/21 00:50:11;;;;;;;11.27;5.60;;;1.40;82.70;;;;;;5094147;28;20207;-61
2022/03/21 00:52:44;;;;;;;16.23;5.18;;;1.40;82.70;;;;;;5094218;28;20350;-61
2022/03/21 00:55:11;;;;;;;9.25;5.05;;;1.40;82.50;;;;;;5094173;28;20580;-61
2022/03/21 00:57:40;;;;;;;7.22;4.53;;;1.30;82.80;;;;;;5092837;28;20537;-61
2022/03/21 01:00:08;;;;;;;8.15;4.78;;;1.30;83.80;;;;;;5094065;28;20028;-61
2022/03/21 01:02:35;;;;;;;11.55;4.95;;;1.30;83.60;;;;;;5094116;28;20107;-61
2022/03/21 01:05:02;;;;;;;10.60;5.00;;;1.20;83.80;;;;;;5094031;28;20074;-61
2022/03/21 01:07:27;;;;;;;9.07;4.55;;;1.20;84.70;;;;;;5092457;28;20028;-61
2022/03/21 01:09:54;;;;;;;10.88;5.20;;;1.10;86.10;;;;;;5094180;28;20109;-61
2022/03/21 01:12:20;;;;;;;14.38;5.70;;;1.10;86.90;;;;;;5093845;28;20032;-61
2022/03/21 01:14:46;;;;;;;12.13;5.00;;;1.10;86.40;;;;;;5092364;28;20078;-61
2022/03/21 01:17:11;;;;;;;11.32;5.30;;;1.00;87.10;;;;;;5094244;28;20020;-61
2022/03/21 01:19:37;;;;;;;14.27;5.85;;;1.00;88.30;;;;;;5092990;28;20456;-61
2022/03/21 01:22:05;;;;;;;10.55;5.63;;;1.90;90.30;;;;;;5093954;28;20025;-61
2022/03/21 01:24:32;;;;;;;9.07;4.72;;;0.90;90.60;;;;;;5092543;28;20460;-61
2022/03/21 01:26:57;;;;;;;10.77;5.80;;;0.90;90.20;;;;;;5093805;28;20086;-61
2022/03/21 01:29:23;;;;;;;10.13;5.28;;;0.90;90.70;;;;;;5093465;28;20040;-61
2022/03/21 01:31:49;;;;;;;13.88;4.88;;;0.90;90.50;;;;;;5094039;28;20043;-61
2022/03/21 01:34:15;;;;;;;11.95;5.32;;;0.80;91.40;;;;;;5092495;28;20031;-61
2022/03/21 01:36:41;;;;;;;8.10;4.47;;;0.80;91.60;;;;;;5093727;28;20053;-61
2022/03/21 01:39:07;;;;;;;9.18;4.55;;;0.90;91.60;;;;;;5093710;28;20104;-61
2022/03/21 01:41:33;;;;;;;8.48;4.85;;;0.80;91.20;;;;;;5093738;28;20508;-61
2022/03/21 01:44:03;;;;;;;10.25;4.85;;;2.20;91.70;;;;;;5093676;28;20464;-61
2022/03/21 01:46:29;;;;;;;10.75;4.65;;;0.80;91.60;;;;;;5092574;28;20031;-61
2022/03/21 01:48:56;;;;;;;10.75;4.95;;;0.80;91.60;;;;;;5093581;28;20036;-61
2022/03/21 01:51:22;;;;;;;10.80;5.05;;;0.80;91.30;;;;;;5093643;28;20081;-61
2022/03/21 01:56:33;;;;;;;9.18;4.85;;;0.90;90.90;;;;;;5093867;28;20043;-61
2022/03/21 01:59:00;;;;;;;12.52;4.90;;;0.90;91.10;;;;;;5092700;28;20035;-61
2022/03/21 02:01:25;;;;;;;9.35;4.85;;;0.90;90.90;;;;;;5093249;28;20476;-61
2022/03/21 02:03:51;;;;;;;8.93;5.15;;;0.90;91.10;;;;;;5093155;28;20038;-61
2022/03/21 02:06:17;;;;;;;9.38;4.70;;;0.90;90.60;;;;;;5093947;28;20030;-61
2022/03/21 02:08:44;;;;;;;8.70;5.38;;;0.90;90.50;;;;;;5093502;28;20102;-61
2022/03/21 02:11:10;;;;;;;9.65;4.10;;;0.90;90.20;;;;;;5092209;28;20028;-61
2022/03/21 02:13:36;;;;;;;7.78;4.22;;;0.90;90.00;;;;;;5097152;28;20020;-61
2022/03/21 02:16:04;;;;;;;11.10;5.22;;;1.00;91.30;;;;;;5097417;28;20446;-61
2022/03/21 02:18:32;;;;;;;8.43;4.50;;;0.90;91.00;;;;;;5097230;28;20035;-61
2022/03/21 02:21:00;;;;;;;11.65;5.53;;;1.10;91.70;;;;;;5096790;28;20055;-64
2022/03/21 02:23:50;;;;;;;10.40;4.90;;;0.90;90.70;;;;;;5095746;28;20067;-61
2022/03/21 02:26:17;;;;;;;8.57;4.35;;;0.90;90.60;;;;;;5096987;28;20043;-61
2022/03/21 02:28:46;;;;;;;9.35;5.40;;;0.90;91.10;;;;;;5096761;28;20097;-61
2022/03/21 02:31:12;;;;;;;7.88;4.40;;;0.80;91.70;;;;;;5095579;28;20052;-61
2022/03/21 02:33:39;;;;;;;8.45;4.95;;;0.80;91.60;;;;;;5096531;28;20036;-61
2022/03/21 02:36:05;;;;;;;8.02;4.78;;;0.70;92.40;;;;;;5095467;28;20495;-62
2022/03/21 02:38:33;;;;;;;11.07;4.47;;;0.70;91.50;;;;;;5096726;28;20032;-61
2022/03/21 02:40:59;;;;;;;8.35;4.75;;;0.70;91.70;;;;;;5095420;28;20051;-61
2022/03/21 02:43:25;;;;;;;8.95;4.45;;;0.80;91.90;;;;;;5095318;28;20064;-61
2022/03/21 02:45:50;;;;;;;9.77;4.15;;;0.70;91.70;;;;;;5096715;28;20028;-61
2022/03/21 02:48:18;;;;;;;11.15;4.57;;;0.80;92.10;;;;;;5096310;28;20047;-61
2022/03/21 02:51:02;;;;;;;10.02;4.25;;;0.80;91.60;;;;;;5096554;28;20023;-61
2022/03/21 02:53:30;;;;;;;10.50;4.20;;;0.70;92.10;;;;;;5095107;28;20035;-61
2022/03/21 02:55:56;;;;;;;8.18;3.90;;;0.70;91.80;;;;;;5095092;28;20406;-61
2022/03/21 02:58:22;;;;;;;7.10;4.13;;;0.70;91.90;;;;;;5096329;28;20060;-61
2022/03/21 03:00:49;;;;;;;14.35;4.75;;;0.70;92.40;;;;;;5096259;28;20052;-61
2022/03/21 03:03:33;;;;;;;10.57;4.35;;;1.40;92.70;;;;;;5095971;28;20031;-61
2022/03/21 03:05:59;;;;;;;11.95;4.30;;;0.60;93.60;;;;;;5096484;28;20498;-61
2022/03/21 03:08:24;;;;;;;8.82;4.47;;;0.60;93.20;;;;;;5094419;28;20085;-61
2022/03/21 03:10:50;;;;;;;9.02;4.68;;;0.60;92.70;;;;;;5096098;28;20032;-61
2022/03/21 03:13:15;;;;;;;8.23;3.85;;;0.50;93.10;;;;;;5096187;28;20056;-61
2022/03/21 03:15:41;;;;;;;7.88;4.78;;;0.50;93.70;;;;;;5096245;28;20505;-61
2022/03/21 03:18:07;;;;;;;6.55;3.90;;;0.50;93.30;;;;;;5095742;28;20497;-61
2022/03/21 03:20:32;;;;;;;10.65;4.93;;;0.40;93.90;;;;;;5095888;28;20051;-61
2022/03/21 03:23:02;;;;;;;9.10;4.88;;;1.20;93.80;;;;;;5094432;28;20020;-61
2022/03/21 03:25:27;;;;;;;9.15;5.22;;;0.50;93.60;;;;;;5094500;28;20069;-61
2022/03/21 03:27:53;;;;;;;6.60;3.55;;;0.40;94.00;;;;;;5095885;28;20024;-61
2022/03/21 03:30:19;;;;;;;8.57;4.28;;;0.50;93.60;;;;;;5095326;28;20028;-61
2022/03/21 03:32:47;;;;;;;9.65;4.22;;;1.20;94.20;;;;;;5095644;28;20476;-61
2022/03/21 03:35:13;;;;;;;8.55;4.40;;;0.40;94.70;;;;;;5095616;28;20052;-61
2022/03/21 03:37:39;;;;;;;7.70;4.32;;;0.40;95.30;;;;;;5095613;28;20438;-61
2022/03/21 03:40:05;;;;;;;8.48;3.75;;;0.30;94.90;;;;;;5094235;28;20369;-61
2022/03/21 03:42:31;;;;;;;9.05;4.65;;;0.40;95.20;;;;;;5095537;28;20020;-61
2022/03/21 03:44:57;;;;;;;10.48;4.50;;;0.30;95.40;;;;;;5095465;28;20020;-61
2022/03/21 03:47:23;;;;;;;15.52;4.68;;;0.40;96.00;;;;;;5095725;28;20016;-62
2022/03/21 03:49:49;;;;;;;10.02;4.60;;;0.30;95.50;;;;;;5095325;28;20477;-61
2022/03/21 03:52:14;;;;;;;9.70;4.15;;;0.30;95.60;;;;;;5094147;28;20028;-61
2022/03/21 03:54:40;;;;;;;8.45;4.30;;;1.40;95.80;;;;;;5095289;28;20063;-61
2022/03/21 03:59:50;;;;;;;8.10;4.28;;;0.20;96.60;;;;;;5094957;28;20074;-62
2022/03/21 04:02:16;;;;;;;8.18;4.00;;;0.10;96.70;;;;;;5094795;28;20052;-61
2022/03/21 04:04:42;;;;;;;10.93;4.97;;;0.10;96.50;;;;;;5093810;28;20032;-61
2022/03/21 04:07:08;;;;;;;13.95;4.97;;;0.20;96.60;;;;;;5093437;28;20032;-61
2022/03/21 04:09:33;;;;;;;16.27;5.32;;;0.10;96.70;;;;;;5095131;28;20052;-61
2022/03/21 04:11:59;;;;;;;8.43;4.97;;;0.00;97.20;;;;;;5093723;28;20032;-61
2022/03/21 04:14:25;;;;;;;11.45;4.70;;;0.00;97.30;;;;;;5094903;28;20414;-61
2022/03/21 04:16:51;;;;;;;8.77;5.00;;;0.00;97.70;;;;;;5093550;28;20024;-61
2022/03/21 04:19:16;;;;;;;10.00;4.20;;;0.00;97.80;;;;;;5094696;28;20399;-61
2022/03/21 04:21:42;;;;;;;10.57;4.88;;;-0.20;98.20;;;;;;5094956;28;20032;-61
2022/03/21 04:24:08;;;;;;;8.07;5.13;;;-0.20;98.10;;;;;;5094673;28;20035;-61
2022/03/21 04:26:34;;;;;;;9.63;4.43;;;-0.10;97.90;;;;;;5094815;28;20024;-62
2022/03/21 04:29:02;;;;;;;11.65;5.25;;;0.60;98.80;;;;;;5094684;28;20543;-61
2022/03/21 04:31:28;;;;;;;8.43;4.00;;;-0.20;98.80;;;;;;5094817;28;20028;-61
2022/03/21 04:33:54;;;;;;;8.68;4.60;;;-0.20;98.90;;;;;;5094107;28;20032;-61
2022/03/21 04:36:19;;;;;;;9.32;4.45;;;-0.30;98.90;;;;;;5094410;28;20105;-61
2022/03/21 04:38:45;;;;;;;11.48;5.18;;;-0.30;99.40;;;;;;5094437;28;20387;-61
2022/03/21 04:41:11;;;;;;;14.18;4.95;;;-0.40;99.60;;;;;;5094734;28;20111;-61
2022/03/21 04:43:36;;;;;;;10.35;4.50;;;-0.40;99.90;;;;;;5094283;28;20028;-61
2022/03/21 04:46:02;;;;;;;11.23;4.95;;;-0.40;99.40;;;;;;5094045;28;20032;-61
2022/03/21 04:48:28;;;;;;;12.85;5.18;;;-0.40;98.70;;;;;;5094214;28;20031;-61
2022/03/21 04:50:54;;;;;;;10.35;5.05;;;0.80;99.10;;;;;;5092979;28;20438;-61
2022/03/21 04:53:19;;;;;;;8.73;5.00;;;-0.10;98.30;;;;;;5094078;28;20459;-61
2022/03/21 04:55:45;;;;;;;9.68;4.30;;;-0.30;98.50;;;;;;5093294;28;20020;-61
2022/03/21 04:58:11;;;;;;;10.82;5.13;;;-0.30;98.20;;;;;;5094068;28;20439;-61
2022/03/21 05:00:38;;;;;;;9.88;5.10;;;-0.30;98.50;;;;;;5092873;28;20035;-61
2022/03/21 05:03:07;;;;;;;8.60;5.07;;;-0.20;98.30;;;;;;5094433;28;20356;-61
2022/03/21 05:05:35;;;;;;;9.65;4.55;;;1.90;98.90;;;;;;5094059;28;20028;-62
2022/03/21 05:08:02;;;;;;;14.05;4.90;;;-0.20;98.20;;;;;;5092530;28;20048;-62
2022/03/21 05:10:28;;;;;;;9.52;4.22;;;-0.20;98.10;;;;;;5093952;28;20035;-61
2022/03/21 05:12:55;;;;;;;10.95;4.88;;;-0.20;98.10;;;;;;5093949;28;20066;-61
2022/03/21 05:15:21;;;;;;;9.75;4.28;;;1.80;98.50;;;;;;5093943;28;20028;-61
2022/03/21 05:17:46;;;;;;;10.02;5.25;;;-0.20;98.00;;;;;;5093980;28;20032;-61
2022/03/21 05:20:16;;;;;;;14.68;4.85;;;-0.20;98.00;;;;;;5092641;28;20135;-62
2022/03/21 05:22:44;;;;;;;9.40;4.63;;;-0.20;98.20;;;;;;5094485;28;20055;-61
2022/03/21 05:30:57;;;;;;;17.15;4.90;;;-0.20;98.50;;;;;;5093584;28;20031;-61
2022/03/21 05:36:08;;;;;;;9.27;4.45;;;-0.20;98.60;;;;;;5093748;28;20031;-61
2022/03/21 05:38:34;;;;;;;11.35;5.45;;;-0.20;98.60;;;;;;5093753;28;20027;-61
2022/03/21 05:41:01;;;;;;;10.73;4.72;;;-0.10;98.70;;;;;;5093737;28;20027;-61
2022/03/21 05:43:31;;;;;;;11.73;5.45;;;-0.10;98.80;;;;;;5093774;28;20032;-67
2022/03/21 05:46:00;;;;;;;11.70;5.63;;;-0.10;99.00;;;;;;5095157;28;20032;-62
2022/03/21 05:51:09;;;;;;;10.27;5.68;;;0.00;99.20;;;;;;5098088;28;20046;-61
2022/03/21 05:53:35;;;;;;;10.00;5.28;;;0.10;99.70;;;;;;5097506;28;20386;-61
2022/03/21 05:56:02;;;;;;;14.20;6.03;;;0.80;99.80;;;;;;5097491;28;20098;-61
2022/03/21 05:58:28;;;;;;;10.20;5.50;;;0.00;99.70;;;;;;5096155;28;20028;-61
2022/03/21 06:00:54;;;;;;;15.18;5.65;;;0.10;99.70;;;;;;5097437;28;20020;-60
2022/03/21 06:03:20;;;;;;;15.52;6.80;;;0.20;99.60;;;;;;5096109;28;20078;-61
2022/03/21 06:05:46;;;;;;;12.88;6.50;;;0.40;99.10;;;;;;5097543;28;20020;-61
2022/03/21 06:08:12;;;;;;;12.65;6.28;;;0.80;98.50;;;;;;5096962;28;20194;-61
2022/03/21 06:10:38;;;;;;;15.10;6.95;;;1.10;97.20;;;;;;5095983;28;20456;-61
2022/03/21 06:13:05;;;;;;;14.85;6.55;;;1.50;96.30;;;;;;5097257;28;20452;-61
2022/03/21 06:15:32;;;;;;;16.42;7.53;;;1.80;94.70;;;;;;5095879;28;20024;-61
2022/03/21 06:17:59;;;;;;;11.75;6.60;;;2.20;93.20;;;;;;5095770;28;20028;-61
2022/03/21 06:20:26;;;;;;;12.20;6.85;;;2.60;91.40;;;;;;5097067;28;20047;-61
2022/03/21 06:22:51;;;;;;;13.15;7.57;;;2.80;90.60;;;;;;5096978;28;20028;-61
2022/03/21 06:25:17;;;;;;;10.10;6.05;;;3.20;84.50;;;;;;5095707;28;20024;-61
2022/03/21 06:27:43;;;;;;;11.88;7.15;;;3.40;80.40;;;;;;5095666;28;20380;-61
2022/03/21 06:30:10;;;;;;;18.13;7.53;;;3.80;76.60;;;;;;5095221;28;20028;-61
2022/03/21 06:32:37;;;;;;;13.82;7.53;;;4.40;72.60;;;;;;5096874;28;20039;-61
2022/03/21 06:35:09;;;;;;;12.13;7.65;;;4.30;70.30;;;;;;5096517;28;20486;-61
2022/03/21 06:37:35;;;;;;;12.60;7.32;;;4.50;66.70;;;;;;5096802;28;20410;-61
2022/03/21 06:40:01;;;;;;;15.82;7.70;;;4.60;66.50;;;;;;5097001;28;20035;-61
2022/03/21 06:42:27;;;;;;;10.40;6.97;;;4.80;63.50;;;;;;5096659;28;20028;-61
2022/03/21 06:44:55;;;;;;;13.10;7.75;;;4.90;63.00;;;;;;5096944;28;20528;-63
2022/03/21 06:47:21;;;;;;;15.32;7.43;;;5.00;64.20;;;;;;5095360;28;20028;-64
2022/03/21 06:49:47;;;;;;;13.50;7.10;;;5.30;64.80;;;;;;5096473;28;20040;-63
2022/03/21 06:52:14;;;;;;;14.45;7.82;;;5.50;66.60;;;;;;5096520;28;20541;-63
2022/03/21 06:54:42;;;;;;;11.52;7.32;;;5.60;59.70;;;;;;5096840;28;20085;-63
2022/03/21 06:57:09;;;;;;;14.47;7.73;;;5.70;58.80;;;;;;5096138;28;20020;-64
2022/03/21 06:59:35;;;;;;;14.38;8.07;;;5.60;61.00;;;;;;5096660;28;20031;-61
2022/03/21 07:02:01;;;;;;;13.50;7.43;;;5.70;57.80;;;;;;5095942;28;20391;-61
2022/03/21 07:04:27;;;;;;;15.35;8.15;;;5.70;56.20;;;;;;5096621;28;20024;-62
2022/03/21 07:06:53;;;;;;;12.02;7.25;;;5.80;55.70;;;;;;5094947;28;20030;-61
2022/03/21 07:09:19;;;;;;;20.13;9.18;;;5.80;55.70;;;;;;5094691;28;20522;-61
2022/03/21 07:11:45;;;;;;;15.65;8.75;;;5.80;55.50;;;;;;5096188;28;20028;-62
2022/03/21 07:14:12;;;;;;;11.95;7.70;;;5.90;55.50;;;;;;5096248;28;20032;-62
2022/03/21 07:16:37;;;;;;;12.98;6.97;;;6.30;54.10;;;;;;5096398;28;20024;-62
2022/03/21 07:19:03;;;;;;;15.00;8.23;;;6.60;52.30;;;;;;5095975;28;20387;-62
2022/03/21 07:21:29;;;;;;;15.57;8.02;;;7.00;51.00;;;;;;5096208;28;20107;-62
2022/03/21 07:23:55;;;;;;;12.50;7.70;;;7.20;50.10;;;;;;5094520;28;20027;-61
2022/03/21 07:26:21;;;;;;;17.15;8.00;;;7.40;49.20;;;;;;5095482;28;20046;-62
2022/03/21 07:28:46;;;;;;;12.45;6.93;;;7.80;48.30;;;;;;5095977;28;20032;-62
2022/03/21 07:31:13;;;;;;;14.82;8.13;;;7.70;47.20;;;;;;5094481;28;20123;-61
2022/03/21 07:33:40;;;;;;;14.05;8.05;;;8.00;47.00;;;;;;5095731;28;20491;-62
2022/03/21 07:36:07;;;;;;;14.48;7.93;;;8.30;47.10;;;;;;5095621;28;20522;-62
2022/03/21 07:38:33;;;;;;;13.88;8.15;;;8.90;44.90;;;;;;5094806;28;20059;-62
2022/03/21 07:40:59;;;;;;;13.63;8.20;;;9.00;43.80;;;;;;5095506;28;20028;-62
2022/03/21 07:43:25;;;;;;;15.70;8.32;;;8.60;43.90;;;;;;5095113;28;20032;-61
2022/03/21 07:48:35;;;;;;;14.25;7.88;;;8.60;43.50;;;;;;5095052;28;20031;-62
2022/03/21 07:51:04;;;;;;;11.00;7.28;;;8.70;44.00;;;;;;5095111;28;20024;-62
2022/03/21 07:53:33;;;;;;;12.88;7.88;;;9.10;43.50;;;;;;5093962;28;20115;-61
2022/03/21 07:56:00;;;;;;;14.38;7.80;;;9.30;42.90;;;;;;5095302;28;20456;-62
2022/03/21 07:58:29;;;;;;;11.68;6.78;;;9.70;42.20;;;;;;5093858;28;20461;-62
2022/03/21 08:00:56;;;;;;;;;;;9.80;40.70;;;;;;5095603;28;20080;-61
2022/03/21 08:03:22;;;;;;;8.73;6.20;;;9.80;40.40;;;;;;5093542;28;19961;-62
2022/03/21 08:05:48;;;;;;;11.73;6.45;;;9.90;40.20;;;;;;5095344;28;20039;-62
2022/03/21 08:08:15;;;;;;;9.20;6.38;;;10.00;39.40;;;;;;5094915;28;20097;-62
2022/03/21 08:10:42;;;;;;;11.57;6.45;;;10.00;39.70;;;;;;5094018;28;20464;-61
2022/03/21 08:13:16;;;;;;;11.02;6.13;;;10.10;39.50;;;;;;5095006;28;20077;-61
2022/03/21 08:15:43;;;;;;;11.70;7.07;;;10.30;39.20;;;;;;5095033;28;20020;-62
2022/03/21 08:18:10;;;;;;;10.60;6.32;;;10.60;38.10;;;;;;5093527;28;20046;-62
2022/03/21 08:20:38;;;;;;;9.80;6.28;;;10.60;38.20;;;;;;5093477;28;20032;-62
2022/03/21 08:23:08;;;;;;;8.40;6.25;;;10.40;37.90;;;;;;5093410;28;20028;-62
2022/03/21 08:25:38;;;;;;;9.68;6.05;;;10.30;38.50;;;;;;5094728;28;20115;-62
2022/03/21 08:28:08;;;;;;;10.60;5.57;;;11.00;37.80;;;;;;5094876;28;20035;-62
2022/03/21 08:30:35;;;;;;;13.32;6.10;;;11.40;37.30;;;;;;5095670;28;20155;-62
2022/03/21 08:33:03;;;;;;;9.30;5.47;;;11.90;36.20;;;;;;5095210;28;20380;-62
2022/03/21 08:35:30;;;;;;;9.48;5.57;;;11.60;34.40;;;;;;5094679;28;20406;-63
2022/03/21 08:37:56;;;;;;;10.68;5.97;;;11.00;34.50;;;;;;5095361;28;20029;-62
2022/03/21 08:40:22;;;;;;;7.88;5.30;;;10.70;34.30;;;;;;5094986;28;20521;-63
2022/03/21 08:42:47;;;;;;;7.32;4.90;;;10.70;34.70;;;;;;5095061;28;20024;-62
2022/03/21 08:45:15;;;;;;;7.38;4.85;;;10.90;35.60;;;;;;5094462;28;20020;-62
2022/03/21 08:47:41;;;;;;;8.25;5.32;;;10.90;34.60;;;;;;5093103;28;20092;-62
2022/03/21 08:50:07;;;;;;;8.60;4.97;;;11.40;34.00;;;;;;5094308;28;20489;-62
2022/03/21 08:52:33;;;;;;;9.00;5.30;;;11.20;34.10;;;;;;5094021;28;20376;-62
2022/03/21 08:54:59;;;;;;;6.97;4.60;;;11.50;32.80;;;;;;5093914;28;20035;-62
2022/03/21 08:57:25;;;;;;;5.72;4.45;;;11.00;33.10;;;;;;5092930;28;20027;-62
2022/03/21 08:59:52;;;;;;;8.27;4.60;;;11.30;32.60;;;;;;5094421;28;20036;-62
2022/03/21 09:02:18;;;;;;;11.25;4.60;;;11.20;32.10;;;;;;5093175;28;20059;-62
2022/03/21 09:04:45;;;;;;;5.25;4.05;;;11.30;32.60;;;;;;5093785;28;20030;-62
2022/03/21 09:07:13;;;;;;;8.63;4.90;;;11.60;32.00;;;;;;5094095;28;20028;-62
2022/03/21 09:09:39;;;;;;;7.35;4.82;;;11.70;31.50;;;;;;5093965;28;20127;-62
2022/03/21 09:12:05;;;;;;;10.00;4.88;;;11.90;31.50;;;;;;5094041;28;20103;-62
2022/03/21 09:14:31;;;;;;;9.07;4.70;;;12.20;31.10;;;;;;5093940;28;20131;-62
2022/03/21 09:16:57;;;;;;;10.00;4.82;;;12.60;30.80;;;;;;5093504;28;20464;-62
2022/03/21 09:19:23;;;;;;;7.97;4.90;;;13.40;30.10;;;;;;5093872;28;20024;-62
2022/03/21 09:21:50;;;;;;;9.70;4.85;;;13.60;29.50;;;;;;5093784;28;20521;-62
2022/03/21 09:24:16;;;;;;;7.10;5.03;;;14.00;29.40;;;;;;5093782;28;20103;-62
2022/03/21 09:26:42;;;;;;;7.05;4.93;;;13.70;29.40;;;;;;5093869;28;20172;-62
2022/03/21 09:29:09;;;;;;;8.30;4.88;;;13.20;29.50;;;;;;5093639;28;20032;-62
2022/03/21 09:31:36;;;;;;;7.28;4.60;;;13.50;30.00;;;;;;5093779;28;20024;-62
2022/03/21 09:34:02;;;;;;;10.32;5.72;;;13.80;29.10;;;;;;5093730;28;20032;-62
2022/03/21 09:36:28;;;;;;;7.65;5.20;;;13.50;28.80;;;;;;5093794;28;20024;-62
2022/03/21 09:38:54;;;;;;;6.05;4.85;;;12.60;29.60;;;;;;5093710;28;20028;-62
2022/03/21 09:41:25;;;;;;;7.53;4.55;;;12.20;30.10;;;;;;5093967;28;20031;-62
2022/03/21 09:43:56;;;;;;;7.47;5.00;;;12.30;30.50;;;;;;5094018;28;20024;-62
2022/03/21 09:46:22;;;;;;;7.85;4.85;;;13.10;30.50;;;;;;5092687;28;20016;-62
2022/03/21 09:48:49;;;;;;;7.75;4.95;;;14.10;29.70;;;;;;5093735;28;20036;-62
2022/03/21 09:51:20;;;;;;;5.80;4.20;;;13.60;28.70;;;;;;5093358;28;20495;-62
2022/03/21 09:53:47;;;;;;;10.18;5.20;;;13.30;29.30;;;;;;5093514;28;20494;-62
2022/03/21 09:56:13;;;;;;;7.45;4.82;;;13.70;29.10;;;;;;5093466;28;20031;-62
2022/03/21 09:58:39;;;;;;;8.73;4.70;;;13.70;29.20;;;;;;5092510;28;20047;-62
2022/03/21 10:01:05;;;;;;;9.95;5.18;;;14.30;28.90;;;;;;5093498;28;20028;-63
2022/03/21 10:03:33;;;;;;;6.15;4.75;;;14.10;28.20;;;;;;5092253;28;20448;-62
2022/03/21 10:06:00;;;;;;;8.07;5.00;;;13.90;28.20;;;;;;5093464;28;20020;-62
2022/03/21 10:08:27;;;;;;;7.32;4.82;;;14.20;28.60;;;;;;5093670;28;20052;-62
2022/03/21 10:11:01;;;;;;;9.15;5.35;;;14.90;28.10;;;;;;5093454;28;20031;-62
2022/03/21 10:13:39;;;;;;;8.60;5.00;;;14.80;28.10;;;;;;5092282;28;20024;-62
2022/03/21 10:16:09;;;;;;;10.20;5.00;;;14.70;28.10;;;;;;5091792;28;20024;-62
2022/03/21 10:18:36;;;;;;;5.47;4.85;;;15.20;27.70;;;;;;5092286;28;20424;-62
2022/03/21 10:21:22;;;;;;;7.05;4.43;;;15.70;27.10;;;;;;5093325;28;20033;-62
2022/03/21 10:24:02;;;;;;;8.73;4.60;;;14.80;27.00;;;;;;5093414;28;20032;-62
2022/03/21 10:26:28;;;;;;;9.07;4.50;;;14.50;27.80;;;;;;5092001;28;20024;-62
2022/03/21 10:28:59;;;;;;;5.82;4.13;;;15.20;27.20;;;;;;5093495;28;20032;-63
2022/03/21 10:31:35;;;;;;;7.70;4.72;;;15.30;27.10;;;;;;5091643;28;20032;-62
2022/03/21 10:34:03;;;;;;;5.25;4.25;;;15.20;27.00;;;;;;5095063;28;20024;-62
2022/03/21 10:36:28;;;;;;;7.28;4.40;;;15.70;26.80;;;;;;5095652;28;20032;-62
2022/03/21 10:39:11;;;;;;;5.68;4.30;;;15.20;26.90;;;;;;5097011;28;20105;-62
2022/03/21 10:41:39;;;;;;;9.63;4.88;;;15.50;26.30;;;;;;5097213;28;20035;-62
2022/03/21 10:44:06;;;;;;;7.15;5.00;;;15.80;26.60;;;;;;5096724;28;20052;-62
2022/03/21 10:46:32;;;;;;;7.10;4.60;;;16.50;26.00;;;;;;5096217;28;20024;-62
2022/03/21 10:49:28;;;;;;;5.95;5.03;;;15.90;26.10;;;;;;5096734;28;20050;-62
2022/03/21 10:51:54;;;;;;;9.32;5.25;;;16.80;26.00;;;;;;5096376;28;20032;-63
2022/03/21 10:54:48;;;;;;;7.32;4.97;;;16.60;26.20;;;;;;5096104;28;20026;-62
2022/03/21 10:57:31;;;;;;;7.70;4.60;;;17.40;25.30;;;;;;5096270;28;20036;-62
2022/03/21 11:00:16;;;;;;;7.22;5.45;;;17.50;25.60;;;;;;5095311;28;20028;-62
2022/03/21 11:02:53;;;;;;;5.47;4.32;;;16.90;25.30;;;;;;5096368;28;20047;-63
2022/03/21 11:05:20;;;;;;;6.35;4.97;;;17.50;25.00;;;;;;5095954;28;20034;-63
2022/03/21 11:07:46;;;;;;;5.78;4.28;;;17.30;24.90;;;;;;5095282;28;20044;-64
2022/03/21 11:10:13;;;;;;;8.40;4.57;;;17.20;24.70;;;;;;5098698;28;20024;-62
2022/03/21 11:12:42;;;;;;;4.60;4.15;;;15.80;25.30;;;;;;5097356;28;20104;-62
2022/03/21 11:15:12;;;;;;;6.80;4.10;;;15.40;26.10;;;;;;5096731;28;20020;-63
2022/03/21 11:17:38;;;;;;;6.35;4.20;;;15.20;26.00;;;;;;5095196;28;20056;-62
2022/03/21 11:20:08;;;;;;;6.05;3.95;;;14.90;25.90;;;;;;5094772;28;20443;-62
2022/03/21 11:22:35;;;;;;;5.50;4.10;;;14.80;26.40;;;;;;5094629;28;20020;-62
2022/03/21 11:25:16;;;;;;;6.68;4.00;;;15.40;26.10;;;;;;5095614;28;20436;-62
2022/03/21 11:28:08;;;;;;;5.57;4.07;;;15.30;25.90;;;;;;5095533;28;20024;-62
2022/03/21 11:30:54;;;;;;;5.93;4.38;;;16.00;25.10;;;;;;5094495;28;20115;-62
2022/03/21 11:33:38;;;;;;;6.50;4.30;;;16.60;25.20;;;;;;5094464;28;20468;-62
2022/03/21 11:36:07;;;;;;;5.78;4.55;;;16.80;24.70;;;;;;5095931;28;20028;-62
2022/03/21 11:38:41;;;;;;;6.40;4.43;;;15.70;24.70;;;;;;5095666;28;20129;-62
2022/03/21 11:41:18;;;;;;;9.80;5.05;;;16.40;24.70;;;;;;5095603;28;20035;-62
2022/03/21 11:43:46;;;;;;;9.07;4.50;;;16.60;24.60;;;;;;5095516;28;20024;-62
2022/03/21 11:46:30;;;;;;;5.47;4.05;;;16.70;24.50;;;;;;5095421;28;20063;-63
2022/03/21 11:49:01;;;;;;;4.05;3.65;;;15.80;24.60;;;;;;5095631;28;20024;-60
2022/03/21 11:51:38;;;;;;;4.63;3.70;;;16.50;25.70;;;;;;5094030;28;20528;-55
2022/03/21 11:54:06;;;;;;;4.13;3.67;;;16.80;24.80;;;;;;5094258;28;20060;-56
2022/03/21 11:56:41;;;;;;;5.57;4.13;;;16.40;25.80;;;;;;5095228;28;20120;-55
2022/03/21 11:59:08;;;;;;;5.40;3.80;;;16.60;24.80;;;;;;5095153;28;20115;-56
2022/03/21 12:01:34;;;;;;;5.35;3.88;;;16.80;24.40;;;;;;5095249;28;20050;-56
2022/03/21 12:04:24;;;;;;;5.20;3.88;;;17.90;24.20;;;;;;5093688;28;20020;-55
2022/03/21 12:06:50;;;;;;;6.40;3.47;;;18.10;23.70;;;;;;5094715;28;20028;-55
2022/03/21 12:09:16;;;;;;;5.95;3.83;;;17.10;24.20;;;;;;5094705;28;20044;-56
2022/03/21 12:11:43;;;;;;;5.35;3.58;;;16.60;24.00;;;;;;5094647;28;20028;-55
2022/03/21 12:14:36;;;;;;;4.75;3.78;;;16.20;23.80;;;;;;5095130;28;20016;-56
2022/03/21 12:17:01;;;;;;;4.32;3.35;;;15.90;24.10;;;;;;5094790;28;20028;-56
2022/03/21 12:20:11;;;;;;;5.13;3.55;;;16.30;23.80;;;;;;5094827;28;20042;-56
2022/03/21 12:22:40;;;;;;;5.25;4.10;;;16.30;23.70;;;;;;5095152;28;20084;-56
2022/03/21 12:25:23;;;;;;;5.22;3.63;;;16.60;23.80;;;;;;5094567;28;20460;-56
2022/03/21 12:27:55;;;;;;;5.82;3.67;;;16.90;23.90;;;;;;5094675;28;20031;-55
2022/03/21 12:30:20;;;;;;;4.28;3.45;;;17.00;24.10;;;;;;5093607;28;20039;-55
2022/03/21 12:33:12;;;;;;;6.18;3.55;;;17.00;24.00;;;;;;5093351;28;20028;-56
2022/03/21 12:35:45;;;;;;;4.10;3.28;;;16.90;24.70;;;;;;5094426;28;20459;-55
2022/03/21 12:38:22;;;;;;;4.30;3.38;;;16.90;23.70;;;;;;5094475;28;20039;-56
2022/03/21 12:40:51;;;;;;;4.35;3.63;;;16.10;24.00;;;;;;5094514;28;20027;-55
2022/03/21 12:43:22;;;;;;;6.72;4.03;;;16.00;23.70;;;;;;5094566;28;20024;-56
2022/03/21 12:45:50;;;;;;;7.13;4.00;;;16.80;24.00;;;;;;5094023;28;20106;-56
2022/03/21 12:48:17;;;;;;;4.68;2.83;;;17.40;23.00;;;;;;5094248;28;20098;-55
2022/03/21 12:50:47;;;;;;;4.90;3.70;;;16.80;23.20;;;;;;5094506;28;20067;-56
2022/03/21 12:53:16;;;;;;;4.70;3.42;;;16.50;23.40;;;;;;5110047;28;20371;-57
2022/03/21 12:55:42;;;;;;;4.67;3.63;;;15.90;24.40;;;;;;5092555;28;20032;-56
2022/03/21 12:58:12;;;;;;;5.90;3.78;;;15.70;23.70;;;;;;5094231;28;20024;-56
2022/03/21 13:00:40;;;;;;;4.72;3.42;;;15.40;23.80;;;;;;5094215;28;20031;-56
2022/03/21 13:03:10;;;;;;;4.85;3.53;;;16.00;24.30;;;;;;5094183;28;20028;-56
2022/03/21 13:11:28;;;;;;;7.15;4.15;;;15.70;23.20;;;;;;5093802;28;20043;-62
2022/03/21 13:14:01;;;;;;;5.10;3.40;;;15.30;23.60;;;;;;5092721;28;20024;-62
2022/03/21 13:16:38;;;;;;;5.88;3.92;;;15.80;23.60;;;;;;5093378;28;20028;-62
2022/03/21 13:19:08;;;;;;;5.40;3.45;;;16.60;23.40;;;;;;5095400;28;20032;-63